Delta, Utah Weather observations

Data are for observation ending at time listed.
 Day   Time    Ave.   Ave.  Ave.  Vector   Max.   Stn.    Total    Solar   Ave.  
  of    of     Air    Rel.  Wind   Wind    Wind   Baro.  Precip.   Rad.    Soil  
Year   Day     Temp.  Hum.  Speed  Dir.    Gust   Pres.                    Temp. 
2015   (MST)    F      %     mph   deg.    mph     mb.     in.     W/m2     F   
------------------------------------------------------------------------------
 123    1:50   58.3    36    0.8   236      2.9   855.5    0.00       0    99999.0
 123    2:00   58.3    36    1.5   115      2.8   855.4    0.00       0    99999.0
 123    2:10   58.4    35    1.4   156      3.4   855.4    0.00       0    99999.0
 123    2:20   58.5    34    1.2   133      2.3   855.3    0.00       0    99999.0
 123    2:30   58.9    33    1.2   212      4.6   855.3    0.00       0    99999.0
 123    2:40   60.2    30    2.8   190      4.5   855.4    0.00       0    99999.0
 123    2:50   58.8    33    2.2   138      3.0   855.4    0.00       0    99999.0
 123    3:00   57.2    37    2.3   154      4.3   855.5    0.00       0    99999.0
 123    3:10   57.6    36    2.1   359      3.9   855.6    0.00       0    99999.0
 123    3:20   57.2    37    3.3   301      7.0   855.8    0.00       0    99999.0
 123    3:30   56.5    38    1.3   337      3.1   855.8    0.00       0    99999.0
 123    3:40   56.0    39    0.8   120      2.5   855.8    0.00       0    99999.0
 123    3:50   56.3    39    0.7   248      2.1   855.8    0.00       0    99999.0
 123    4:00   56.4    39    0.0     0      0.0   855.8    0.00       0    99999.0
 123    4:10   56.5    39    0.2   105      2.0   855.8    0.00       0    99999.0
 123    4:20   57.1    37    0.6   110      2.2   855.7    0.00       0    99999.0
 123    4:30   57.5    37    1.0   221      2.9   855.7    0.00       0    99999.0
 123    4:40   57.3    36    0.5   122      1.5   855.6    0.00       0    99999.0
 123    4:50   57.6    36    2.5   151      3.9   855.6    0.00       0    99999.0
 123    5:00   58.9    32    1.4   155      3.2   855.6    0.00       0    99999.0
 123    5:10   58.7    33    2.2   141      3.9   855.7    0.00       0    99999.0
 123    5:20   57.0    37    2.0   145      3.3   855.7    0.00       0    99999.0
 123    5:30   56.4    39    1.5   145      3.5   855.8    0.00       0    99999.0
 123    5:40   55.6    41    2.0   128      3.1   855.7    0.00       2    99999.0
 123    5:50   55.5    40    2.7   141      3.9   855.8    0.00       6    99999.0
 123    6:00   55.9    39    2.9   130      4.3   855.8    0.00      11    99999.0
 123    6:10   56.1    38    3.0   123      4.8   855.9    0.00      18    99999.0
 123    6:20   56.4    38    2.3   133      3.6   856.1    0.00      24    99999.0
 123    6:30   56.2    40    2.6   126      4.1   856.2    0.00      30    99999.0
 123    6:40   56.3    40    2.8   139      5.0   856.3    0.00     122    99999.0
 123    6:50   57.0    40    2.3   122      3.7   856.5    0.00      67    99999.0
 123    7:00   56.3    43    2.6   126      4.1   856.5    0.00      65    99999.0
 123    7:10   57.3    41    3.5   136      5.6   856.5    0.00     218    99999.0
 123    7:20   59.8    37    4.2   138      6.7   856.6    0.00     221    99999.0
 123    7:30   60.6    34    3.1   150      5.4   856.8    0.00     109    99999.0
 123    7:40   60.9    33    1.9   153      3.9   856.9    0.00      54    99999.0
 123    7:50   62.3    33    2.3   134      4.2   856.8    0.00     349    99999.0
 123    8:00   64.8    29    3.2   152      5.4   856.9    0.00     318    99999.0
 123    8:10   64.8    29    2.5   185      5.3   856.9    0.00     179    99999.0
 123    8:20   65.4    29    3.0   198      5.0   857.0    0.00     434    99999.0
 123    8:30   66.9    29    2.9   173      6.4   857.0    0.00     514    99999.0
 123    8:40   68.3    26    4.1   186      8.0   856.9    0.00     552    99999.0
 123    8:50   69.4    25    3.6   169      5.9   856.9    0.00     561    99999.0
 123    9:00   70.8    23    4.8   188     10.5   856.9    0.00     582    99999.0
 123    9:10   71.6    22    7.0   189     15.7   856.9    0.00     615    99999.0
 123    9:20   71.7    21    7.3   187     12.7   856.9    0.00     600    99999.0
 123    9:30   72.5    21    5.6   189      9.5   856.9    0.00     602    99999.0
 123    9:40   72.7    20    5.0   211      8.0   856.9    0.00     609    99999.0
 123    9:50   72.7    20    5.9   204      9.6   856.9    0.00     636    99999.0
 123   10:00   72.9    20    4.8   221      8.7   857.0    0.00     644    99999.0
 123   10:10   73.4    20    4.3   209      7.4   857.0    0.00     511    99999.0
 123   10:20   72.8    19    4.0   234      6.6   857.0    0.00     373    99999.0
 123   10:30   74.3    19    4.2   250      7.5   856.9    0.00     771    99999.0
 123   10:40   75.0    17    4.3   265     12.1   856.8    0.00     796    99999.0
 123   10:50   75.1    18    4.8   277     10.2   856.8    0.00     748    99999.0
 123   11:00   75.1    18    3.7   286      7.1   856.7    0.00     619    99999.0
 123   11:10   73.9    18    3.0   269      8.1   856.6    0.00     146    99999.0
 123   11:20   73.6    18    3.3   280      6.3   856.5    0.00     278    99999.0
 123   11:30   74.0    18    4.4   214      6.7   856.5    0.00     402    99999.0
 123   11:40   75.4    17    5.8   203     13.3   856.4    0.00     696    99999.0
 123   11:50   74.7    15    7.3   185     13.9   856.4    0.00     266    99999.0
 123   12:00   74.4    15    2.8   139      6.1   856.2    0.00     384    99999.0
 123   12:10   75.8    15    3.2   169      6.8   856.0    0.00     893    99999.0
 123   12:20   76.1    15    4.0   176      8.1   855.9    0.00     565    99999.0
 123   12:30   76.4    15    6.4   212     13.7   855.8    0.00     820    99999.0
 123   12:40   76.9    14    4.9   214     11.0   855.6    0.00     821    99999.0
 123   12:50   77.0    15    6.8   201     15.6   855.5    0.00     820    99999.0
 123   13:00   76.9    15    7.8   189     18.6   855.4    0.00     805    99999.0
 123   13:10   77.1    15    7.5   192     14.4   855.4    0.00     788    99999.0
 123   13:20   77.2    15    8.5   180     15.7   855.3    0.00     825    99999.0
 123   13:30   77.2    15    6.7   179     11.0   855.2    0.00     798    99999.0
 123   13:40   77.5    15    7.6   182     14.5   855.1    0.00     798    99999.0
 123   13:50   77.7    15    7.3   202     12.9   855.0    0.00     750    99999.0
 123   14:00   78.0    14    5.1   228     11.1   854.9    0.00     742    99999.0
 123   14:10   77.7    14    5.8   210     10.5   854.8    0.00     748    99999.0
 123   14:20   78.2    15    5.0   206      8.6   854.7    0.00     614    99999.0
 123   14:30   77.1    15    7.2   196     13.0   854.7    0.00     497    99999.0
 123   14:40   77.2    14    5.2   195     10.2   854.6    0.00     329    99999.0
 123   14:50   76.8    16    3.3   222      7.4   854.4    0.00     449    99999.0
 123   15:00   78.2    14    5.8   211      9.8   854.2    0.00     667    99999.0
 123   15:10   78.4    13    4.2   219      9.2   854.2    0.00     371    99999.0
 123   15:20   77.6    13    2.3   221      5.4   854.0    0.00     115    99999.0
 123   15:30   76.6    15    3.7   217      9.4   853.9    0.00     287    99999.0
 123   15:40   78.2    14    5.4   206     14.7   853.9    0.00     526    99999.0
 123   15:50   78.2    14    4.6   191      8.1   853.8    0.00     621    99999.0
 123   16:00   78.6    14    6.4   189     11.0   853.7    0.00     536    99999.0
 123   16:10   77.4    18    7.6   202     13.0   853.7    0.00     482    99999.0
 123   16:20   75.8    20   11.1   196     20.9   853.8    0.00     325    99999.0
 123   16:30   75.3    20   11.5   188     19.1   853.8    0.00     520    99999.0
 123   16:40   74.8    20   10.3   178     17.7   853.7    0.00     393    99999.0
 123   16:50   74.5    20    8.6   176     15.1   853.7    0.00     319    99999.0
 123   17:00   75.1    19    8.2   178     13.8   853.7    0.00     129    99999.0
 123   17:10   75.4    19    7.6   177     13.0   853.6    0.00     252    99999.0
 123   17:20   75.2    19    7.8   177     11.8   853.6    0.00     148    99999.0
 123   17:30   75.1    19    8.2   184     13.5   853.6    0.00     295    99999.0
 123   17:40   74.5    19    8.2   191     18.1   853.7    0.00     220    99999.0
 123   17:50   74.1    21    6.2   186      9.7   853.7    0.00     117    99999.0
 123   18:00   73.3    21    7.2   190     12.3   853.7    0.00      40    99999.0
 123   18:10   72.9    22    6.6   183     11.5   853.7    0.00      69    99999.0
 123   18:20   72.4    22    7.3   186     12.5   853.6    0.00      50    99999.0
 123   18:30   72.2    22    7.6   182     13.2   853.7    0.00     101    99999.0
 123   18:40   71.4    24    6.6   185     12.5   853.7    0.00      53    99999.0
 123   18:50   70.3    26    6.9   183     12.1   853.8    0.00      24    99999.0
 123   19:00   69.6    26    8.0   183     15.5   853.9    0.00      20    99999.0
 123   19:10   68.9    27    7.4   182     15.5   853.9    0.00      15    99999.0
 123   19:20   68.2    27    5.9   175      8.8   853.9    0.00       9    99999.0
 123   19:30   68.1    27    5.2   173      8.5   854.0    0.00       2    99999.0
 123   19:40   67.9    28    4.7   177      7.3   854.1    0.00       0    99999.0
 123   19:50   66.8    29    4.2   174      8.5   854.2    0.00       0    99999.0
 123   20:00   66.5    29    3.5   161      5.9   854.3    0.00       0    99999.0
 123   20:10   66.2    29    3.8   164      6.9   854.4    0.00       0    99999.0
 123   20:20   66.0    29    3.2   164      5.6   854.5    0.00       0    99999.0
 123   20:30   65.9    29    3.1   164      5.0   854.8    0.00       0    99999.0
 123   20:40   66.0    29    2.3   163      4.5   855.1    0.00       0    99999.0
 123   20:50   66.0    29    2.9   238      8.6   855.5    0.00       0    99999.0
 123   21:00   65.4    31    4.8   264     15.3   856.0    0.00       0    99999.0
 123   21:10   65.7    34    5.9   299     13.3   856.2    0.00       0    99999.0
 123   21:20   63.9    40    3.8   319      7.5   856.4    0.00       0    99999.0
 123   21:30   63.1    43    2.0   289      4.8   856.6    0.00       0    99999.0
 123   21:40   62.7    44    1.6   238      3.5   856.8    0.00       0    99999.0
 123   21:50   62.9    43    2.6   314      5.9   856.7    0.00       0    99999.0
 123   22:00   62.9    43    2.3   318      6.3   856.7    0.00       0    99999.0
 123   22:10   62.6    46    2.3   305      5.1   856.7    0.00       0    99999.0
 123   22:20   62.7    45    3.9     1      7.3   856.8    0.00       0    99999.0
 123   22:30   62.8    45    2.2   348      4.2   856.9    0.00       0    99999.0
 123   22:40   62.9    44    1.9   353      3.4   856.9    0.00       0    99999.0
 123   22:50   63.3    41    1.8     2      3.8   857.0    0.00       0    99999.0
 123   23:00   63.3    41    1.2    58      4.6   857.0    0.00       0    99999.0
 123   23:10   62.9    42    1.9   284      4.6   857.0    0.00       0    99999.0
 123   23:20   62.8    42    3.2   284      5.7   857.1    0.00       0    99999.0
 123   23:30   62.2    45    1.2    25      2.3   857.1    0.00       0    99999.0
 123   23:40   61.4    49    2.7   203      4.5   857.2    0.00       0    99999.0
 123   23:50   61.2    48    2.0   196      4.3   857.4    0.00       0    99999.0
 124    0:00   61.5    46    0.1   224      1.5   857.5    0.00       0    99999.0
 124    0:10   61.8    46    0.8   306      3.6   857.6    0.00       0    99999.0
 124    0:20   61.8    45    1.9   307      3.4   857.7    0.00       0    99999.0
 124    0:30   61.2    47    0.8   231      2.9   857.7    0.00       0    99999.0
 124    0:40   61.5    44    1.9   245      3.4   857.7    0.00       0    99999.0
 124    0:50   61.9    42    2.1   248      3.3   857.7    0.00       0    99999.0
 124    1:00   61.2    46    2.2   237      3.5   857.7    0.00       0    99999.0
 124    1:10   60.3    49    1.9   244      3.8   857.7    0.00       0    99999.0
 124    1:20   60.8    46    2.5   203      4.7   857.6    0.00       0    99999.0
 124    1:30   61.3    44    2.6   202      4.7   857.5    0.00       0    99999.0
 124    1:40   61.5    43    3.9   208      9.7   857.4    0.00       0    99999.0

Return to Delta, Utah graphs page.


Western Regional Climate Center,wrcc@dri.edu